createdAt,value
2022-07-26T00:00:15.461Z,0.00
2022-07-26T00:01:15.519Z,0.00
2022-07-26T00:02:18.465Z,0.00
2022-07-26T00:03:15.405Z,0.00
2022-07-26T00:04:15.390Z,0.00
2022-07-26T00:05:15.383Z,0.00
2022-07-26T00:06:15.390Z,0.00
2022-07-26T00:07:15.360Z,0.00
2022-07-26T00:08:15.378Z,0.00
2022-07-26T00:09:15.338Z,0.00
2022-07-26T00:10:15.346Z,0.00
2022-07-26T00:11:15.347Z,0.00
2022-07-26T00:12:15.308Z,0.00
2022-07-26T00:13:15.302Z,0.00
2022-07-26T00:14:15.288Z,0.00
2022-07-26T00:15:15.448Z,0.00
2022-07-26T00:16:15.404Z,0.00
2022-07-26T00:17:15.269Z,0.00
2022-07-26T00:18:15.243Z,0.00
2022-07-26T00:19:15.235Z,0.00
2022-07-26T00:20:15.214Z,0.00
2022-07-26T00:21:15.224Z,0.00
2022-07-26T00:22:15.230Z,0.00
2022-07-26T00:23:15.185Z,0.00
2022-07-26T00:24:15.178Z,0.00
2022-07-26T00:25:15.178Z,0.00
2022-07-26T00:26:15.155Z,0.00
2022-07-26T00:27:15.148Z,0.00
2022-07-26T00:28:15.128Z,0.00
2022-07-26T00:29:15.160Z,0.00
2022-07-26T00:30:15.118Z,0.00
2022-07-26T00:31:15.231Z,0.00
2022-07-26T00:32:15.085Z,0.00
2022-07-26T00:33:15.078Z,0.00
2022-07-26T00:34:15.070Z,0.00
2022-07-26T00:35:15.096Z,0.00
2022-07-26T00:36:15.098Z,0.00
2022-07-26T00:37:20.064Z,0.00
2022-07-26T00:38:16.063Z,0.00
2022-07-26T00:39:15.012Z,0.00
2022-07-26T00:40:15.045Z,0.00
2022-07-26T00:41:14.994Z,0.00
2022-07-26T00:42:14.981Z,0.00
2022-07-26T00:43:15.017Z,0.00
2022-07-26T00:44:14.964Z,0.00
2022-07-26T00:45:14.978Z,0.00
2022-07-26T00:46:15.022Z,0.00
2022-07-26T00:47:14.925Z,0.00
2022-07-26T00:48:14.923Z,0.00
2022-07-26T00:49:15.119Z,0.00
2022-07-26T00:50:14.918Z,0.00
2022-07-26T00:51:14.884Z,0.00
2022-07-26T00:52:14.882Z,0.00
2022-07-26T00:53:14.863Z,0.00
2022-07-26T00:54:14.857Z,0.00
2022-07-26T00:55:14.878Z,0.00
2022-07-26T00:56:14.830Z,0.00
2022-07-26T00:57:14.849Z,0.00
2022-07-26T00:58:14.840Z,0.00
2022-07-26T00:59:14.793Z,0.00
2022-07-26T01:00:14.831Z,0.00
2022-07-26T01:01:14.871Z,0.00
2022-07-26T01:02:14.793Z,0.00
2022-07-26T01:03:14.786Z,0.00
2022-07-26T01:04:14.761Z,0.00
2022-07-26T01:05:14.761Z,0.00
2022-07-26T01:06:14.732Z,0.00
2022-07-26T01:07:15.616Z,0.00
2022-07-26T01:08:14.703Z,0.00
2022-07-26T01:09:14.741Z,0.00
2022-07-26T01:10:14.699Z,0.00
2022-07-26T01:11:14.677Z,0.00
2022-07-26T01:12:14.658Z,0.00
2022-07-26T01:13:14.678Z,0.00
2022-07-26T01:14:14.667Z,0.00
2022-07-26T01:15:14.659Z,0.00
2022-07-26T01:16:14.642Z,0.00
2022-07-26T01:17:14.605Z,0.00
2022-07-26T01:18:14.638Z,0.00
2022-07-26T01:19:14.591Z,0.00
2022-07-26T01:20:14.596Z,0.00
2022-07-26T01:21:14.575Z,0.00
2022-07-26T01:22:15.003Z,0.00
2022-07-26T01:23:14.552Z,0.00
2022-07-26T01:24:14.574Z,0.00
2022-07-26T01:25:14.557Z,0.00
2022-07-26T01:26:14.530Z,0.00
2022-07-26T01:27:14.499Z,0.00
2022-07-26T01:28:20.176Z,0.00
2022-07-26T01:29:15.479Z,0.00
2022-07-26T01:30:14.481Z,0.00
2022-07-26T01:31:14.560Z,0.00
2022-07-26T01:32:14.446Z,0.00
2022-07-26T01:33:14.459Z,0.00
2022-07-26T01:34:14.417Z,0.00
2022-07-26T01:35:14.424Z,0.00
2022-07-26T01:36:14.409Z,0.00
2022-07-26T01:37:14.391Z,0.00
2022-07-26T01:38:14.385Z,0.00
2022-07-26T01:39:14.389Z,0.00
2022-07-26T01:40:14.386Z,0.00
2022-07-26T01:41:14.361Z,0.00
2022-07-26T01:42:14.342Z,0.00
2022-07-26T01:43:14.331Z,0.00
2022-07-26T01:44:14.326Z,0.00
2022-07-26T01:45:14.392Z,0.00
2022-07-26T01:46:14.367Z,0.00
2022-07-26T01:47:14.286Z,0.00
2022-07-26T01:48:14.288Z,0.00
2022-07-26T01:49:14.379Z,0.00
2022-07-26T01:50:14.336Z,0.00
2022-07-26T01:51:14.250Z,0.00
2022-07-26T01:52:14.259Z,0.00
2022-07-26T01:53:14.229Z,0.00
2022-07-26T01:54:14.227Z,0.00
2022-07-26T01:55:14.231Z,0.00
2022-07-26T01:56:14.196Z,0.00
2022-07-26T01:57:14.195Z,0.00
2022-07-26T01:58:14.184Z,0.00
2022-07-26T01:59:14.161Z,0.00
2022-07-26T02:00:14.190Z,0.00
2022-07-26T02:01:14.191Z,0.00
2022-07-26T02:02:14.249Z,0.00
2022-07-26T02:03:14.157Z,0.00
2022-07-26T02:04:14.141Z,0.00
2022-07-26T02:05:14.109Z,0.00
2022-07-26T02:06:14.121Z,0.00
2022-07-26T02:07:14.112Z,0.00
2022-07-26T02:08:14.065Z,0.00
2022-07-26T02:09:14.054Z,0.00
2022-07-26T02:10:14.651Z,0.00
2022-07-26T02:11:14.031Z,0.00
2022-07-26T02:12:14.029Z,0.00
2022-07-26T02:13:14.013Z,0.00
2022-07-26T02:14:26.111Z,0.00
2022-07-26T02:15:15.042Z,0.00
2022-07-26T02:16:14.025Z,0.00
2022-07-26T02:17:13.970Z,0.00
2022-07-26T02:18:13.969Z,0.00
2022-07-26T02:19:13.950Z,0.00
2022-07-26T02:20:13.956Z,0.00
2022-07-26T02:21:13.953Z,0.00
2022-07-26T02:22:13.905Z,0.00
2022-07-26T02:23:13.906Z,0.00
2022-07-26T02:24:13.894Z,0.00
2022-07-26T02:25:13.896Z,0.00
2022-07-26T02:26:13.903Z,0.00
2022-07-26T02:27:13.856Z,0.00
2022-07-26T02:28:13.844Z,0.00
2022-07-26T02:29:13.846Z,0.00
2022-07-26T02:30:13.842Z,0.00
2022-07-26T02:31:15.486Z,0.00
2022-07-26T02:32:13.829Z,0.00
2022-07-26T02:33:13.798Z,0.00
2022-07-26T02:34:13.788Z,0.00
2022-07-26T02:35:13.787Z,0.00
2022-07-26T02:36:13.788Z,0.00
2022-07-26T02:37:13.761Z,0.00
2022-07-26T02:38:13.788Z,0.00
2022-07-26T02:39:13.732Z,0.00
2022-07-26T02:40:18.831Z,0.00
2022-07-26T02:41:14.767Z,0.00
2022-07-26T02:42:13.699Z,0.00
2022-07-26T02:43:13.695Z,0.00
2022-07-26T02:44:13.688Z,0.00
2022-07-26T02:45:13.726Z,0.00
2022-07-26T02:46:13.743Z,0.00
2022-07-26T02:47:13.641Z,0.00
2022-07-26T02:48:13.637Z,0.00
2022-07-26T02:49:13.729Z,0.00
2022-07-26T02:50:13.627Z,0.00
2022-07-26T02:51:13.634Z,0.00
2022-07-26T02:52:13.604Z,0.00
2022-07-26T02:53:13.582Z,0.00
2022-07-26T02:54:13.570Z,0.00
2022-07-26T02:55:13.560Z,0.00
2022-07-26T02:56:13.541Z,0.00
2022-07-26T02:57:13.527Z,0.00
2022-07-26T02:58:13.546Z,0.00
2022-07-26T02:59:13.514Z,0.00
2022-07-26T03:00:13.539Z,0.00
2022-07-26T03:01:13.558Z,0.00
2022-07-26T03:02:13.478Z,0.00
2022-07-26T03:03:13.500Z,0.00
2022-07-26T03:04:13.455Z,0.00
2022-07-26T03:05:13.484Z,0.00
2022-07-26T03:06:13.455Z,0.00
2022-07-26T03:07:13.415Z,0.00
2022-07-26T03:08:13.424Z,0.00
2022-07-26T03:09:13.415Z,0.00
2022-07-26T03:10:13.391Z,0.00
2022-07-26T03:11:13.442Z,0.00
2022-07-26T03:12:13.372Z,0.00
2022-07-26T03:13:13.354Z,0.00
2022-07-26T03:14:13.366Z,0.00
2022-07-26T03:15:13.340Z,0.00
2022-07-26T03:16:13.400Z,0.00
2022-07-26T03:17:13.341Z,0.00
2022-07-26T03:18:13.306Z,0.00
2022-07-26T03:19:13.312Z,0.00
2022-07-26T03:20:13.286Z,0.00
2022-07-26T03:21:13.309Z,0.00
2022-07-26T03:22:13.267Z,0.00
2022-07-26T03:23:13.306Z,0.00
2022-07-26T03:24:13.240Z,0.00
2022-07-26T03:25:13.245Z,4.00
2022-07-26T03:26:13.239Z,4.00
2022-07-26T03:27:13.217Z,4.00
2022-07-26T03:28:18.921Z,0.00
2022-07-26T03:29:14.237Z,4.00
2022-07-26T03:30:13.179Z,4.00
2022-07-26T03:31:13.303Z,4.00
2022-07-26T03:32:13.163Z,8.00
2022-07-26T03:33:13.153Z,8.00
2022-07-26T03:34:13.171Z,8.00
2022-07-26T03:35:13.121Z,12.00
2022-07-26T03:36:15.584Z,16.00
2022-07-26T03:37:13.187Z,20.00
2022-07-26T03:38:13.113Z,20.00
2022-07-26T03:39:13.125Z,28.00
2022-07-26T03:40:13.162Z,32.00
2022-07-26T03:41:13.835Z,40.00
2022-07-26T03:42:13.079Z,40.00
2022-07-26T03:43:13.038Z,40.00
2022-07-26T03:44:13.037Z,44.00
2022-07-26T03:45:13.030Z,40.00
2022-07-26T03:46:13.065Z,44.00
2022-07-26T03:47:13.074Z,48.00
2022-07-26T03:48:12.989Z,56.00
2022-07-26T03:49:16.684Z,64.00
2022-07-26T03:50:12.967Z,68.00
2022-07-26T03:51:12.973Z,72.00
2022-07-26T03:52:12.966Z,76.00
2022-07-26T03:53:12.941Z,80.00
2022-07-26T03:54:13.089Z,84.00
2022-07-26T03:55:12.962Z,96.00
2022-07-26T03:56:12.932Z,108.00
2022-07-26T03:57:12.892Z,120.00
2022-07-26T03:58:12.887Z,132.00
2022-07-26T03:59:12.876Z,148.00
2022-07-26T04:00:12.875Z,168.00
2022-07-26T04:01:12.895Z,184.00
2022-07-26T04:02:12.881Z,196.00
2022-07-26T04:03:12.856Z,212.00
2022-07-26T04:04:12.833Z,236.00
2022-07-26T04:05:12.806Z,260.00
2022-07-26T04:06:12.834Z,280.00
2022-07-26T04:07:12.794Z,308.00
2022-07-26T04:08:12.786Z,332.00
2022-07-26T04:09:12.781Z,364.00
2022-07-26T04:10:12.765Z,396.00
2022-07-26T04:11:12.761Z,436.00
2022-07-26T04:12:12.748Z,464.00
2022-07-26T04:13:12.728Z,488.00
2022-07-26T04:14:12.790Z,516.00
2022-07-26T04:15:12.713Z,548.00
2022-07-26T04:16:12.728Z,596.00
2022-07-26T04:17:12.738Z,648.00
2022-07-26T04:18:12.727Z,692.00
2022-07-26T04:19:12.684Z,724.00
2022-07-26T04:20:12.686Z,784.00
2022-07-26T04:21:12.658Z,872.00
2022-07-26T04:22:12.644Z,964.00
2022-07-26T04:23:12.687Z,1036.00
2022-07-26T04:24:12.608Z,1096.00
2022-07-26T04:25:12.601Z,1136.00
2022-07-26T04:26:12.611Z,1200.00
2022-07-26T04:27:12.617Z,1296.00
2022-07-26T04:28:12.590Z,1432.00
2022-07-26T04:29:12.606Z,1588.00
2022-07-26T04:30:15.483Z,1684.00
2022-07-26T04:31:12.622Z,1760.00
2022-07-26T04:32:12.554Z,1804.00
2022-07-26T04:33:12.554Z,1812.00
2022-07-26T04:34:12.511Z,1856.00
2022-07-26T04:35:12.490Z,2012.00
2022-07-26T04:36:12.538Z,2184.00
2022-07-26T04:37:12.574Z,2212.00
2022-07-26T04:38:12.453Z,2324.00
2022-07-26T04:39:12.458Z,2640.00
2022-07-26T04:40:13.072Z,2936.00
2022-07-26T04:41:12.436Z,3204.00
2022-07-26T04:42:12.423Z,3396.00
2022-07-26T04:43:15.530Z,3400.00
2022-07-26T04:44:12.471Z,3556.00
2022-07-26T04:45:12.391Z,3804.00
2022-07-26T04:46:12.440Z,4132.00
2022-07-26T04:47:12.400Z,4532.00
2022-07-26T04:48:12.342Z,4572.00
2022-07-26T04:49:12.400Z,4020.00
2022-07-26T04:50:12.417Z,3544.00
2022-07-26T04:51:12.367Z,3356.00
2022-07-26T04:52:12.308Z,3328.00
2022-07-26T04:53:12.305Z,3372.00
2022-07-26T04:54:12.318Z,3188.00
2022-07-26T04:55:12.278Z,2844.00
2022-07-26T04:56:12.334Z,2592.00
2022-07-26T04:57:12.257Z,2412.00
2022-07-26T04:58:12.302Z,2268.00
2022-07-26T04:59:12.237Z,2188.00
2022-07-26T05:00:25.052Z,2008.00
2022-07-26T05:01:13.313Z,1828.00
2022-07-26T05:02:12.384Z,1668.00
2022-07-26T05:03:12.251Z,1696.00
2022-07-26T05:04:12.187Z,1860.00
2022-07-26T05:05:12.178Z,2180.00
2022-07-26T05:06:12.251Z,2456.00
2022-07-26T05:07:12.161Z,2656.00
2022-07-26T05:08:12.191Z,2904.00
2022-07-26T05:09:12.131Z,3096.00
2022-07-26T05:10:12.117Z,3392.00
2022-07-26T05:11:12.125Z,3628.00
2022-07-26T05:12:12.092Z,3792.00
2022-07-26T05:13:12.104Z,4128.00
2022-07-26T05:14:12.175Z,4456.00
2022-07-26T05:15:14.127Z,4496.00
2022-07-26T05:16:12.265Z,4224.00
2022-07-26T05:17:12.090Z,3924.00
2022-07-26T05:18:13.526Z,4000.00
2022-07-26T05:19:12.114Z,4312.00
2022-07-26T05:20:12.029Z,4600.00
2022-07-26T05:21:12.029Z,4464.00
2022-07-26T05:22:11.995Z,4140.00
2022-07-26T05:23:11.975Z,3908.00
2022-07-26T05:24:12.321Z,3896.00
2022-07-26T05:25:11.996Z,3888.00
2022-07-26T05:26:11.975Z,3992.00
2022-07-26T05:27:11.986Z,4532.00
2022-07-26T05:28:11.964Z,5376.00
2022-07-26T05:29:11.968Z,5808.00
2022-07-26T05:30:11.915Z,6152.00
2022-07-26T05:31:11.986Z,6356.00
2022-07-26T05:32:11.873Z,6568.00
2022-07-26T05:33:12.183Z,6744.00
2022-07-26T05:34:12.129Z,7144.00
2022-07-26T05:35:11.885Z,7176.00
2022-07-26T05:36:11.908Z,7600.00
2022-07-26T05:37:11.864Z,7840.00
2022-07-26T05:38:11.822Z,7368.00
2022-07-26T05:39:15.942Z,6788.00
2022-07-26T05:40:11.844Z,6680.00
2022-07-26T05:41:11.780Z,6808.00
2022-07-26T05:42:11.782Z,6800.00
2022-07-26T05:43:11.779Z,6140.00
2022-07-26T05:44:11.867Z,6272.00
2022-07-26T05:45:11.781Z,6920.00
2022-07-26T05:46:11.965Z,7444.00
2022-07-26T05:47:11.763Z,7808.00
2022-07-26T05:48:11.739Z,7896.00
2022-07-26T05:49:11.755Z,7916.00
2022-07-26T05:50:11.779Z,7820.00
2022-07-26T05:51:11.749Z,7792.00
2022-07-26T05:52:11.681Z,7804.00
2022-07-26T05:53:11.653Z,7956.00
2022-07-26T05:54:11.863Z,7668.00
2022-07-26T05:55:11.782Z,7232.00
2022-07-26T05:56:11.635Z,6944.00
2022-07-26T05:57:11.627Z,7392.00
2022-07-26T05:58:11.671Z,7544.00
2022-07-26T05:59:11.620Z,7900.00
2022-07-26T06:00:11.583Z,8436.00
2022-07-26T06:01:11.582Z,9044.00
2022-07-26T06:02:11.634Z,9664.00
2022-07-26T06:03:11.579Z,9568.00
2022-07-26T06:04:12.145Z,9268.00
2022-07-26T06:05:11.523Z,8768.00
2022-07-26T06:06:11.564Z,8500.00
2022-07-26T06:07:11.572Z,9028.00
2022-07-26T06:08:11.484Z,8888.00
2022-07-26T06:09:11.488Z,9796.00
2022-07-26T06:10:11.510Z,10820.00
2022-07-26T06:11:11.474Z,11560.00
2022-07-26T06:12:11.489Z,12844.00
2022-07-26T06:13:11.446Z,13756.00
2022-07-26T06:14:11.838Z,14512.00
2022-07-26T06:15:15.287Z,14572.00
2022-07-26T06:16:11.401Z,14228.00
2022-07-26T06:17:11.499Z,13164.00
2022-07-26T06:18:11.418Z,13980.00
2022-07-26T06:19:11.387Z,10796.00
2022-07-26T06:20:11.359Z,10368.00
2022-07-26T06:21:11.368Z,11184.00
2022-07-26T06:22:11.348Z,11720.00
2022-07-26T06:23:11.356Z,12444.00
2022-07-26T06:24:11.874Z,12720.00
2022-07-26T06:25:11.322Z,12568.00
2022-07-26T06:26:11.308Z,11852.00
2022-07-26T06:27:11.348Z,26336.00
2022-07-26T06:28:11.266Z,24384.00
2022-07-26T06:29:11.306Z,25344.00
2022-07-26T06:30:11.241Z,30208.00
2022-07-26T06:31:11.396Z,13512.00
2022-07-26T06:32:11.355Z,14080.00
2022-07-26T06:33:11.232Z,15672.00
2022-07-26T06:34:11.718Z,28864.00
2022-07-26T06:35:11.210Z,24544.00
2022-07-26T06:36:11.189Z,12732.00
2022-07-26T06:37:11.205Z,13324.00
2022-07-26T06:38:11.178Z,8400.00
2022-07-26T06:39:11.182Z,13544.00
2022-07-26T06:40:11.143Z,20288.00
2022-07-26T06:41:11.152Z,11420.00
2022-07-26T06:42:11.133Z,12236.00
2022-07-26T06:43:11.106Z,18944.00
2022-07-26T06:44:11.748Z,9304.00
2022-07-26T06:45:11.089Z,8740.00
2022-07-26T06:46:11.168Z,8552.00
2022-07-26T06:47:11.091Z,16576.00
2022-07-26T06:48:11.068Z,20704.00
2022-07-26T06:49:11.180Z,12392.00
2022-07-26T06:50:11.073Z,8528.00
2022-07-26T06:51:11.065Z,21504.00
2022-07-26T06:52:11.054Z,20928.00
2022-07-26T06:53:11.013Z,25376.00
2022-07-26T06:54:11.389Z,22048.00
2022-07-26T06:55:12.734Z,17120.00
2022-07-26T06:56:10.976Z,13100.00
2022-07-26T06:57:10.996Z,10968.00
2022-07-26T06:58:10.961Z,10364.00
2022-07-26T06:59:10.936Z,9884.00
2022-07-26T07:00:10.954Z,9532.00
2022-07-26T07:01:10.963Z,9244.00
2022-07-26T07:02:10.970Z,9164.00
2022-07-26T07:03:10.936Z,9092.00
2022-07-26T07:04:11.511Z,8968.00
2022-07-26T07:05:10.974Z,8876.00
2022-07-26T07:06:10.870Z,8872.00
2022-07-26T07:07:10.916Z,8760.00
2022-07-26T07:08:10.833Z,8776.00
2022-07-26T07:09:10.871Z,8740.00
2022-07-26T07:10:10.828Z,8840.00
2022-07-26T07:11:10.817Z,8964.00
2022-07-26T07:12:10.988Z,9232.00
2022-07-26T07:13:10.787Z,9408.00
2022-07-26T07:14:11.104Z,9524.00
2022-07-26T07:15:10.771Z,9472.00
2022-07-26T07:16:10.808Z,9712.00
2022-07-26T07:17:12.235Z,10456.00
2022-07-26T07:18:10.755Z,11752.00
2022-07-26T07:19:10.734Z,14204.00
2022-07-26T07:20:10.724Z,20736.00
2022-07-26T07:21:10.733Z,26080.00
2022-07-26T07:22:10.705Z,24736.00
2022-07-26T07:23:10.704Z,17024.00
2022-07-26T07:24:11.047Z,15416.00
2022-07-26T07:25:10.687Z,18144.00
2022-07-26T07:26:10.711Z,19744.00
2022-07-26T07:27:10.850Z,20672.00
2022-07-26T07:28:10.627Z,20800.00
2022-07-26T07:29:10.664Z,17632.00
2022-07-26T07:30:10.629Z,14960.00
2022-07-26T07:31:10.709Z,15648.00
2022-07-26T07:32:18.153Z,15872.00
2022-07-26T07:33:22.926Z,17184.00
2022-07-26T07:34:12.054Z,12368.00
2022-07-26T07:35:12.912Z,11660.00
2022-07-26T07:36:10.584Z,11480.00
2022-07-26T07:37:10.560Z,13900.00
2022-07-26T07:38:10.536Z,16320.00
2022-07-26T07:39:15.676Z,12680.00
2022-07-26T07:40:11.496Z,15116.00
2022-07-26T07:41:10.488Z,16352.00
2022-07-26T07:42:10.608Z,22336.00
2022-07-26T07:43:10.503Z,28704.00
2022-07-26T07:44:11.063Z,21440.00
2022-07-26T07:45:10.480Z,16800.00
2022-07-26T07:46:10.458Z,13344.00
2022-07-26T07:47:10.587Z,14336.00
2022-07-26T07:48:10.527Z,18880.00
2022-07-26T07:49:10.979Z,24256.00
2022-07-26T07:50:10.449Z,32320.00
2022-07-26T07:51:10.393Z,12428.00
2022-07-26T07:52:10.494Z,11824.00
2022-07-26T07:53:10.401Z,12168.00
2022-07-26T07:54:10.397Z,13564.00
2022-07-26T07:55:40.364Z,14056.00
2022-07-26T07:56:11.366Z,13828.00
2022-07-26T07:57:10.352Z,12956.00
2022-07-26T07:58:10.312Z,10832.00
2022-07-26T07:59:10.721Z,9216.00
2022-07-26T08:00:10.304Z,8076.00
2022-07-26T08:01:10.367Z,7404.00
2022-07-26T08:02:10.305Z,7028.00
2022-07-26T08:03:10.295Z,7244.00
2022-07-26T08:04:10.334Z,8068.00
2022-07-26T08:05:11.542Z,8644.00
2022-07-26T08:06:10.218Z,8756.00
2022-07-26T08:07:10.239Z,9012.00
2022-07-26T08:08:10.261Z,9016.00
2022-07-26T08:09:13.122Z,9340.00
2022-07-26T08:10:10.182Z,9468.00
2022-07-26T08:11:10.178Z,9496.00
2022-07-26T08:12:10.183Z,9612.00
2022-07-26T08:13:10.167Z,9848.00
2022-07-26T08:14:10.167Z,10912.00
2022-07-26T08:15:10.189Z,11984.00
2022-07-26T08:16:10.203Z,13744.00
2022-07-26T08:17:10.147Z,16800.00
2022-07-26T08:18:10.113Z,16128.00
2022-07-26T08:19:10.468Z,16640.00
2022-07-26T08:20:10.851Z,14608.00
2022-07-26T08:21:11.078Z,13528.00
2022-07-26T08:22:10.121Z,14152.00
2022-07-26T08:23:10.090Z,16832.00
2022-07-26T08:24:10.065Z,19456.00
2022-07-26T08:25:10.020Z,19520.00
2022-07-26T08:26:10.024Z,17408.00
2022-07-26T08:27:10.202Z,15504.00
2022-07-26T08:28:24.946Z,15424.00
2022-07-26T08:29:11.386Z,12380.00
2022-07-26T08:30:09.972Z,12064.00
2022-07-26T08:31:10.004Z,11292.00
2022-07-26T08:32:10.081Z,10432.00
2022-07-26T08:33:09.945Z,10032.00
2022-07-26T08:34:09.931Z,10356.00
2022-07-26T08:35:18.057Z,11472.00
2022-07-26T08:36:11.700Z,13632.00
2022-07-26T08:37:18.125Z,14824.00
2022-07-26T08:38:10.912Z,15648.00
2022-07-26T08:39:10.256Z,16512.00
2022-07-26T08:40:09.863Z,17600.00
2022-07-26T08:41:09.909Z,19040.00
2022-07-26T08:42:09.862Z,20288.00
2022-07-26T08:43:09.830Z,20896.00
2022-07-26T08:44:10.013Z,20512.00
2022-07-26T08:45:09.816Z,18880.00
2022-07-26T08:46:09.846Z,17536.00
2022-07-26T08:47:09.826Z,16384.00
2022-07-26T08:48:18.422Z,15776.00
2022-07-26T08:49:11.063Z,16192.00
2022-07-26T08:50:09.797Z,15100.00
2022-07-26T08:51:11.033Z,14696.00
2022-07-26T08:52:09.927Z,13816.00
2022-07-26T08:53:09.903Z,15484.00
2022-07-26T08:54:11.466Z,18272.00
2022-07-26T08:55:09.709Z,21696.00
2022-07-26T08:56:09.737Z,21312.00
2022-07-26T08:57:09.713Z,20640.00
2022-07-26T08:58:09.724Z,21184.00
2022-07-26T08:59:11.478Z,20832.00
2022-07-26T09:00:09.671Z,20928.00
2022-07-26T09:01:09.755Z,26080.00
2022-07-26T09:02:10.270Z,26912.00
2022-07-26T09:03:10.002Z,33312.00
2022-07-26T09:04:09.699Z,22784.00
2022-07-26T09:05:09.597Z,21696.00
2022-07-26T09:06:09.587Z,24128.00
2022-07-26T09:07:09.606Z,25472.00
2022-07-26T09:08:09.579Z,27040.00
2022-07-26T09:09:10.009Z,32160.00
2022-07-26T09:10:09.575Z,60992.00
2022-07-26T09:11:10.573Z,93088.00
2022-07-26T09:12:10.890Z,97408.00
2022-07-26T09:13:09.503Z,52608.00
2022-07-26T09:14:09.510Z,34816.00
2022-07-26T09:15:09.491Z,29664.00
2022-07-26T09:16:09.531Z,60064.00
2022-07-26T09:17:09.509Z,24992.00
2022-07-26T09:18:09.517Z,25280.00
2022-07-26T09:19:09.810Z,26944.00
2022-07-26T09:20:09.914Z,104000.00
2022-07-26T09:21:11.481Z,56736.00
2022-07-26T09:22:10.477Z,31616.00
2022-07-26T09:23:09.416Z,89152.00
2022-07-26T09:24:09.394Z,30816.00
2022-07-26T09:25:09.382Z,104128.00
2022-07-26T09:26:09.388Z,25856.00
2022-07-26T09:27:09.379Z,92704.00
2022-07-26T09:28:09.515Z,35424.00
2022-07-26T09:29:10.440Z,35072.00
2022-07-26T09:30:11.265Z,38176.00
2022-07-26T09:31:09.361Z,89024.00
2022-07-26T09:32:09.320Z,33568.00
2022-07-26T09:33:09.320Z,31296.00
2022-07-26T09:34:09.582Z,30144.00
2022-07-26T09:35:24.165Z,31104.00
2022-07-26T09:36:10.300Z,32512.00
2022-07-26T09:37:12.438Z,34944.00
2022-07-26T09:38:09.917Z,35808.00
2022-07-26T09:39:10.869Z,110176.00
2022-07-26T09:40:09.284Z,116832.00
2022-07-26T09:41:09.225Z,62528.00
2022-07-26T09:42:29.834Z,78464.00
2022-07-26T09:43:10.196Z,59072.00
2022-07-26T09:44:10.636Z,110528.00
2022-07-26T09:45:09.231Z,96256.00
2022-07-26T09:46:09.283Z,61760.00
2022-07-26T09:47:09.506Z,42784.00
2022-07-26T09:48:09.272Z,51488.00
2022-07-26T09:49:11.053Z,41088.00
2022-07-26T09:50:11.607Z,95008.00
2022-07-26T09:51:09.166Z,98272.00
2022-07-26T09:52:09.119Z,64864.00
2022-07-26T09:53:09.150Z,50688.00
2022-07-26T09:54:09.736Z,87712.00
2022-07-26T09:55:09.300Z,124128.00
2022-07-26T09:56:10.091Z,75776.00
2022-07-26T09:57:09.383Z,30848.00
2022-07-26T09:58:09.047Z,24320.00
2022-07-26T09:59:09.079Z,23360.00
2022-07-26T10:00:09.014Z,24832.00
2022-07-26T10:01:09.009Z,27424.00
2022-07-26T10:02:09.083Z,24576.00
2022-07-26T10:03:09.067Z,23232.00
2022-07-26T10:04:09.279Z,23296.00
2022-07-26T10:05:08.995Z,24896.00
2022-07-26T10:06:08.960Z,77664.00
2022-07-26T10:07:08.972Z,31872.00
2022-07-26T10:08:08.937Z,52128.00
2022-07-26T10:09:08.930Z,76256.00
2022-07-26T10:10:09.006Z,39040.00
2022-07-26T10:11:08.929Z,101312.00
2022-07-26T10:12:08.934Z,36320.00
2022-07-26T10:13:08.888Z,28128.00
2022-07-26T10:14:09.174Z,27072.00
2022-07-26T10:15:08.873Z,26144.00
2022-07-26T10:16:08.921Z,26688.00
2022-07-26T10:17:08.871Z,28096.00
2022-07-26T10:18:08.888Z,31104.00
2022-07-26T10:19:09.126Z,29760.00
2022-07-26T10:20:10.600Z,25248.00
2022-07-26T10:21:09.804Z,26336.00
2022-07-26T10:22:08.804Z,28384.00
2022-07-26T10:23:08.806Z,29632.00
2022-07-26T10:24:09.074Z,31584.00
2022-07-26T10:25:08.764Z,36384.00
2022-07-26T10:26:09.900Z,33984.00
2022-07-26T10:27:08.757Z,31968.00
2022-07-26T10:28:11.778Z,35552.00
2022-07-26T10:29:08.719Z,44256.00
2022-07-26T10:30:08.712Z,40128.00
2022-07-26T10:31:08.864Z,39520.00
2022-07-26T10:32:09.929Z,52672.00
2022-07-26T10:33:08.693Z,45088.00
2022-07-26T10:34:09.123Z,40736.00
2022-07-26T10:35:08.711Z,32256.00
2022-07-26T10:36:08.938Z,31136.00
2022-07-26T10:37:08.687Z,41888.00
2022-07-26T10:38:08.650Z,45536.00
2022-07-26T10:39:08.684Z,57280.00
2022-07-26T10:40:08.870Z,102848.00
2022-07-26T10:41:09.022Z,36960.00
2022-07-26T10:42:08.628Z,112384.00
2022-07-26T10:43:37.851Z,72224.00
2022-07-26T10:44:09.919Z,45344.00
2022-07-26T10:45:08.590Z,19008.00
2022-07-26T10:46:08.632Z,21408.00
2022-07-26T10:47:08.563Z,24288.00
2022-07-26T10:48:08.618Z,31712.00
2022-07-26T10:49:08.915Z,85216.00
2022-07-26T10:50:09.433Z,62720.00
2022-07-26T10:51:08.508Z,34880.00
2022-07-26T10:52:08.531Z,72288.00
2022-07-26T10:53:08.478Z,52928.00
2022-07-26T10:54:08.985Z,86880.00
2022-07-26T10:55:08.547Z,99616.00
2022-07-26T10:56:08.474Z,100608.00
2022-07-26T10:57:08.549Z,93024.00
2022-07-26T10:58:09.401Z,30016.00
2022-07-26T10:59:11.948Z,40896.00
2022-07-26T11:00:08.445Z,35392.00
2022-07-26T11:01:08.469Z,56960.00
2022-07-26T11:02:08.439Z,124224.00
2022-07-26T11:03:08.444Z,121184.00
2022-07-26T11:04:08.878Z,117408.00
2022-07-26T11:05:08.378Z,65792.00
2022-07-26T11:06:08.467Z,41312.00
2022-07-26T11:07:08.671Z,17312.00
2022-07-26T11:08:08.641Z,16640.00
2022-07-26T11:09:08.342Z,15784.00
2022-07-26T11:10:08.353Z,15720.00
2022-07-26T11:11:08.324Z,14748.00
2022-07-26T11:12:08.299Z,14580.00
2022-07-26T11:13:08.401Z,14412.00
2022-07-26T11:14:08.826Z,14580.00
2022-07-26T11:15:08.422Z,109792.00
2022-07-26T11:16:08.845Z,111104.00
2022-07-26T11:17:11.414Z,109888.00
2022-07-26T11:18:08.247Z,114400.00
2022-07-26T11:19:08.253Z,113600.00
2022-07-26T11:20:08.231Z,113888.00
2022-07-26T11:21:08.191Z,110528.00
2022-07-26T11:22:08.202Z,108576.00
2022-07-26T11:23:08.182Z,35200.00
2022-07-26T11:24:08.572Z,92480.00
2022-07-26T11:25:08.181Z,27328.00
2022-07-26T11:26:09.676Z,19616.00
2022-07-26T11:27:08.195Z,18496.00
2022-07-26T11:28:08.306Z,17408.00
2022-07-26T11:29:08.127Z,15852.00
2022-07-26T11:30:08.115Z,16160.00
2022-07-26T11:31:08.224Z,73952.00
2022-07-26T11:32:16.515Z,66464.00
2022-07-26T11:33:09.104Z,120544.00
2022-07-26T11:34:10.161Z,79232.00
2022-07-26T11:35:08.072Z,36128.00
2022-07-26T11:36:08.069Z,23296.00
2022-07-26T11:37:08.053Z,22688.00
2022-07-26T11:38:12.260Z,24064.00
2022-07-26T11:39:08.015Z,27648.00
2022-07-26T11:40:08.067Z,53472.00
2022-07-26T11:41:07.998Z,87040.00
2022-07-26T11:42:08.014Z,98272.00
2022-07-26T11:43:08.188Z,42528.00
2022-07-26T11:44:07.961Z,134784.00
2022-07-26T11:45:07.976Z,37600.00
2022-07-26T11:46:07.992Z,26752.00
2022-07-26T11:47:07.938Z,124320.00
2022-07-26T11:48:07.943Z,50816.00
2022-07-26T11:49:08.019Z,133984.00
2022-07-26T11:50:22.128Z,114848.00
2022-07-26T11:51:08.925Z,111008.00
2022-07-26T11:52:07.926Z,115392.00
2022-07-26T11:53:07.869Z,117440.00
2022-07-26T11:54:08.287Z,114176.00
2022-07-26T11:55:07.841Z,112704.00
2022-07-26T11:56:07.845Z,112992.00
2022-07-26T11:57:07.854Z,108512.00
2022-07-26T11:58:07.840Z,110912.00
2022-07-26T11:59:07.885Z,109152.00
2022-07-26T12:00:09.128Z,109120.00
2022-07-26T12:01:08.300Z,107136.00
2022-07-26T12:02:07.791Z,107264.00
2022-07-26T12:03:07.767Z,116224.00
2022-07-26T12:04:08.185Z,24832.00
2022-07-26T12:05:07.857Z,25280.00
2022-07-26T12:06:07.765Z,26304.00
2022-07-26T12:07:07.821Z,64608.00
2022-07-26T12:08:07.776Z,119872.00
2022-07-26T12:09:07.763Z,116992.00
2022-07-26T12:10:09.116Z,107584.00
2022-07-26T12:11:07.716Z,44224.00
2022-07-26T12:12:07.705Z,24128.00
2022-07-26T12:13:07.678Z,21824.00
2022-07-26T12:14:07.872Z,39232.00
2022-07-26T12:15:07.707Z,113280.00
2022-07-26T12:16:07.729Z,113024.00